San Francisco, CA

11:47 AM PDT on September 03, 2015 (GMT -0700)
Pacific Heights | | Change Station
CLOSE
Current Station
Personal Weather Station
Location: San Francisco, CA
Elevation: 220 ft
Nearby Weather Stations

Elev 220 ft 37.79 °N, 122.44 °W | Updated 11 seconds ago

Clear
Clear
66.0 °F
Feels Like 66.0 °F
N
1.0
Wind Variable Wind from West
Gusts 16.0 mph

Today
High -- | Low -- °F
--% Chance of Precip.
Yesterday
High -- | Low -- °F
Precip. -- in
6:41 AM 7:36 PM
Waning Gibbous, 68% visible
Pressure 29.96 in
Visibility 10.0 miles
Clouds Few 1700 ft
Dew Point 54 °F
Humidity 64%
Rainfall 0.00 in
Snow Depth Not available.
UV 6 out of 12
Pollen 8.00 out of 12
Air Quality Not available.
Flu Activity Not available.
METAR KSFO 031756Z 26016G20KT 10SM FEW017 19/10 A2995 RMK AO2 SLP143 T01940100 10194 20161 53005
Pressure 29.96 in
Visibility 10.0 miles
Clouds Few 1700 ft
Dew Point 54 °F
Humidity 64%
Rainfall 0.00 in
Snow Depth Not available.
UV 6 out of 12
Pollen 8.00 out of 12
Air Quality Not available.
Flu Activity Not available.
METAR KSFO 031756Z 26016G20KT 10SM FEW017 19/10 A2995 RMK AO2 SLP143 T01940100 10194 20161 53005

10-Day Weather Forecast

×

Almanac

Astronomy

Sep. 03, 2015 Rise Set
Actual Time
Civil Twilight
Nautical Twilight
Astronomical Twilight
Moon
Length of Visible Light
Length of Day
Tomorrow will be .
, % of the Moon is Illuminated

Today's Extremes

State Highs State Lows

Community

WunderPhotos

Upload Photos

1,852,001 photos uploaded!

WunderBlogs® & News

Nearby

Air Quality

  Air Quality AQ Index Pollutant
Not available.

Snow Depth

Station Depth Elevation

Earthquake Activity

City Distance Mag. Time & Date
Minimum magnitude displayed is 2.5.

Coastal Water Temperatures

Place Temperature

Stations

Nearby Weather Stations

Station Location Temp. Windchill Dew Point Humidity Wind Precip. Elev Updated Type